Walla Walla Regional Airport
KALW : now visible

Airfield :











YOU CAN JOIN US ON...

 
LOGIN :

Register | Disclaimer

   EN    FR    IT 

 









Legend :    VFR   Marginal VFR   IFR   Intensive IFR   Very Intensive IFR
Visi :
Ceiling :
>= 8 km
>= 3000ft
5 to 8 km
1000 to 3000 ft
1500m to 5 km
500 to 1000 ft
800 to 1500m
200 to 500 ft
< 800m
< 200 ft
Symbols :   Thunderstorms  Fog  Heavy snow  Heavy precipitations  Wind > 20 kt






- Airport Elevation : 1194 ft
- IATA code : ALW


KALW - Walla Walla Regional

CURRENT METAR :
  • 060253Z AUTO 01005KT 10SM FEW065 OVC100 09/05 A2959 RMK AO2 SLP025 T00940050 53005

EXPIRED METARs :
  • 060153Z AUTO 34005KT 10SM SCT110 11/04 A2958 RMK AO2 SLP021 T01110044
  • 060053Z AUTO 32005KT 10SM BKN060 BKN080 OVC100 12/04 A2957 RMK AO2 SLP018 T01220039

TAF KALW
Valid from the 06 at 00:00 until the 07 at 00:00 UTC


052320Z 0600/0624 VRB04KT P6SM SCT050 BKN080
FM060400 11005KT P6SM FEW050 BKN080
FM061700 22007KT P6SM SCT250



MET'MAP, your aeronautical weather chart ! - Copyright ORBIFLY December 2007 - Disclaimer

ORBIFLY MET'MAP TEAM :

Programming & Development : Alexandra Zaïnal
Concept & original design : Baudouin d'Aumeries
Assistance for programming : Marc-Olivier Méhu
Technical & hardware support : Manuel Goepfert

Contact : metmap@orbifly.com




SOURCES & CREDITS :

   NOAA       Earth
Advisory